sensor_id;sensor_type;location;lat;lon;timestamp;P1;durP1;ratioP1;P2;durP2;ratioP2
6438;SDS011;3252;52.540;13.290;2023-02-28T06:51:59;11.27;;;5.50;;
6438;SDS011;3252;52.540;13.290;2023-02-28T06:54:05;13.13;;;6.13;;
6438;SDS011;3252;52.540;13.290;2023-02-28T06:56:12;11.97;;;5.83;;
6438;SDS011;3252;52.540;13.290;2023-02-28T06:58:15;10.90;;;5.40;;
6438;SDS011;3252;52.540;13.290;2023-02-28T07:00:19;9.17;;;5.77;;
6438;SDS011;3252;52.540;13.290;2023-02-28T07:02:25;10.10;;;5.63;;
6438;SDS011;3252;52.540;13.290;2023-02-28T07:04:27;9.33;;;5.40;;
6438;SDS011;3252;52.540;13.290;2023-02-28T07:06:30;11.33;;;5.57;;
6438;SDS011;3252;52.540;13.290;2023-02-28T07:08:34;13.23;;;6.13;;
6438;SDS011;3252;52.540;13.290;2023-02-28T07:10:37;11.90;;;6.20;;
6438;SDS011;3252;52.540;13.290;2023-02-28T07:12:39;9.47;;;5.57;;
6438;SDS011;3252;52.540;13.290;2023-02-28T07:14:41;11.57;;;6.37;;
6438;SDS011;3252;52.540;13.290;2023-02-28T07:16:44;15.80;;;5.73;;
6438;SDS011;3252;52.540;13.290;2023-02-28T07:18:47;12.47;;;6.00;;
6438;SDS011;3252;52.540;13.290;2023-02-28T07:20:49;12.27;;;5.97;;
6438;SDS011;3252;52.540;13.290;2023-02-28T07:22:51;14.40;;;6.07;;
6438;SDS011;3252;52.540;13.290;2023-02-28T07:24:58;23.17;;;5.97;;
6438;SDS011;3252;52.540;13.290;2023-02-28T07:27:00;12.73;;;6.00;;
6438;SDS011;3252;52.540;13.290;2023-02-28T07:29:03;13.90;;;5.67;;
6438;SDS011;3252;52.540;13.290;2023-02-28T07:31:05;12.63;;;6.17;;
6438;SDS011;3252;52.540;13.290;2023-02-28T07:33:17;12.37;;;6.20;;
6438;SDS011;3252;52.540;13.290;2023-02-28T07:35:19;12.47;;;5.73;;
6438;SDS011;3252;52.540;13.290;2023-02-28T07:37:21;13.13;;;5.67;;
6438;SDS011;3252;52.540;13.290;2023-02-28T07:39:25;11.97;;;6.00;;
6438;SDS011;3252;52.540;13.290;2023-02-28T07:41:29;14.97;;;6.17;;
6438;SDS011;3252;52.540;13.290;2023-02-28T07:43:34;14.67;;;5.93;;
6438;SDS011;3252;52.540;13.290;2023-02-28T07:45:37;12.03;;;6.27;;
6438;SDS011;3252;52.540;13.290;2023-02-28T07:47:39;13.13;;;6.37;;
6438;SDS011;3252;52.540;13.290;2023-02-28T07:49:44;13.07;;;6.83;;
6438;SDS011;3252;52.540;13.290;2023-02-28T07:51:46;17.03;;;7.07;;
6438;SDS011;3252;52.540;13.290;2023-02-28T07:53:57;12.33;;;6.77;;
6438;SDS011;3252;52.540;13.290;2023-02-28T07:56:00;11.40;;;6.50;;
6438;SDS011;3252;52.540;13.290;2023-02-28T07:58:06;11.33;;;6.83;;
6438;SDS011;3252;52.540;13.290;2023-02-28T08:00:09;12.60;;;7.00;;
6438;SDS011;3252;52.540;13.290;2023-02-28T08:02:17;17.13;;;6.73;;
6438;SDS011;3252;52.540;13.290;2023-02-28T08:04:21;14.87;;;6.80;;
6438;SDS011;3252;52.540;13.290;2023-02-28T08:06:24;11.37;;;6.73;;
6438;SDS011;3252;52.540;13.290;2023-02-28T08:08:27;12.80;;;7.87;;
6438;SDS011;3252;52.540;13.290;2023-02-28T08:10:31;18.60;;;9.77;;
6438;SDS011;3252;52.540;13.290;2023-02-28T08:12:58;19.93;;;10.80;;
6438;SDS011;3252;52.540;13.290;2023-02-28T08:15:05;27.43;;;11.40;;
6438;SDS011;3252;52.540;13.290;2023-02-28T08:17:09;23.57;;;12.93;;
6438;SDS011;3252;52.540;13.290;2023-02-28T08:19:11;26.47;;;14.17;;
6438;SDS011;3252;52.540;13.290;2023-02-28T08:21:14;25.00;;;14.77;;
6438;SDS011;3252;52.540;13.290;2023-02-28T08:23:16;21.97;;;12.40;;
6438;SDS011;3252;52.540;13.290;2023-02-28T08:25:18;23.97;;;12.87;;
6438;SDS011;3252;52.540;13.290;2023-02-28T08:27:21;21.17;;;11.63;;
6438;SDS011;3252;52.540;13.290;2023-02-28T08:29:23;16.70;;;9.90;;
6438;SDS011;3252;52.540;13.290;2023-02-28T08:31:27;18.73;;;10.60;;
6438;SDS011;3252;52.540;13.290;2023-02-28T08:33:29;19.70;;;9.37;;
6438;SDS011;3252;52.540;13.290;2023-02-28T08:35:32;14.27;;;5.90;;
6438;SDS011;3252;52.540;13.290;2023-02-28T08:37:36;12.50;;;5.90;;
6438;SDS011;3252;52.540;13.290;2023-02-28T08:39:39;9.83;;;5.40;;
6438;SDS011;3252;52.540;13.290;2023-02-28T08:41:42;6.63;;;4.10;;
6438;SDS011;3252;52.540;13.290;2023-02-28T08:43:44;6.70;;;3.53;;
6438;SDS011;3252;52.540;13.290;2023-02-28T08:45:47;9.27;;;4.17;;
6438;SDS011;3252;52.540;13.290;2023-02-28T08:47:55;6.77;;;3.47;;
6438;SDS011;3252;52.540;13.290;2023-02-28T08:49:57;5.63;;;3.10;;
6438;SDS011;3252;52.540;13.290;2023-02-28T08:51:59;5.87;;;2.93;;
6438;SDS011;3252;52.540;13.290;2023-02-28T08:54:01;7.53;;;4.30;;
6438;SDS011;3252;52.540;13.290;2023-02-28T08:56:05;11.13;;;6.17;;
6438;SDS011;3252;52.540;13.290;2023-02-28T08:58:08;4.27;;;2.53;;
6438;SDS011;3252;52.540;13.290;2023-02-28T09:00:11;7.50;;;2.60;;
6438;SDS011;3252;52.540;13.290;2023-02-28T09:02:15;4.33;;;2.20;;
6438;SDS011;3252;52.540;13.290;2023-02-28T09:04:18;5.93;;;2.20;;
6438;SDS011;3252;52.540;13.290;2023-02-28T09:06:21;7.10;;;2.43;;
6438;SDS011;3252;52.540;13.290;2023-02-28T09:08:25;6.20;;;2.10;;
6438;SDS011;3252;52.540;13.290;2023-02-28T09:10:28;3.03;;;1.90;;
6438;SDS011;3252;52.540;13.290;2023-02-28T09:12:32;6.10;;;2.63;;
6438;SDS011;3252;52.540;13.290;2023-02-28T09:14:36;4.70;;;2.47;;
6438;SDS011;3252;52.540;13.290;2023-02-28T09:16:38;4.93;;;2.23;;
6438;SDS011;3252;52.540;13.290;2023-02-28T09:18:40;4.83;;;2.33;;
6438;SDS011;3252;52.540;13.290;2023-02-28T09:20:44;7.33;;;2.30;;
6438;SDS011;3252;52.540;13.290;2023-02-28T09:22:47;5.70;;;2.37;;
6438;SDS011;3252;52.540;13.290;2023-02-28T09:24:49;4.37;;;2.70;;
6438;SDS011;3252;52.540;13.290;2023-02-28T09:26:51;4.00;;;2.30;;
6438;SDS011;3252;52.540;13.290;2023-02-28T09:28:53;5.23;;;2.10;;
6438;SDS011;3252;52.540;13.290;2023-02-28T09:30:56;6.33;;;2.80;;
6438;SDS011;3252;52.540;13.290;2023-02-28T09:32:59;7.37;;;2.50;;
6438;SDS011;3252;52.540;13.290;2023-02-28T09:35:01;5.93;;;2.40;;
6438;SDS011;3252;52.540;13.290;2023-02-28T09:37:05;4.37;;;1.80;;
6438;SDS011;3252;52.540;13.290;2023-02-28T09:39:07;7.53;;;2.03;;
6438;SDS011;3252;52.540;13.290;2023-02-28T09:41:11;6.07;;;2.00;;
6438;SDS011;3252;52.540;13.290;2023-02-28T09:43:16;3.63;;;2.17;;
6438;SDS011;3252;52.540;13.290;2023-02-28T09:45:23;5.03;;;2.57;;
6438;SDS011;3252;52.540;13.290;2023-02-28T09:47:29;4.93;;;2.73;;
6438;SDS011;3252;52.540;13.290;2023-02-28T09:49:37;4.90;;;2.33;;
6438;SDS011;3252;52.540;13.290;2023-02-28T09:51:53;6.57;;;2.40;;
6438;SDS011;3252;52.540;13.290;2023-02-28T09:54:04;5.10;;;1.90;;
6438;SDS011;3252;52.540;13.290;2023-02-28T09:56:08;6.53;;;2.23;;
6438;SDS011;3252;52.540;13.290;2023-02-28T09:58:23;4.33;;;1.97;;
6438;SDS011;3252;52.540;13.290;2023-02-28T10:00:32;5.37;;;1.90;;
6438;SDS011;3252;52.540;13.290;2023-02-28T10:02:41;3.27;;;2.00;;
6438;SDS011;3252;52.540;13.290;2023-02-28T10:04:54;7.70;;;2.20;;
6438;SDS011;3252;52.540;13.290;2023-02-28T10:07:00;7.83;;;2.10;;
6438;SDS011;3252;52.540;13.290;2023-02-28T10:09:10;6.40;;;2.30;;
6438;SDS011;3252;52.540;13.290;2023-02-28T10:11:16;4.80;;;1.90;;
6438;SDS011;3252;52.540;13.290;2023-02-28T10:13:23;3.63;;;2.07;;
6438;SDS011;3252;52.540;13.290;2023-02-28T10:15:32;9.50;;;2.10;;
6438;SDS011;3252;52.540;13.290;2023-02-28T10:17:38;6.00;;;2.30;;
6438;SDS011;3252;52.540;13.290;2023-02-28T10:19:44;4.10;;;2.00;;
6438;SDS011;3252;52.540;13.290;2023-02-28T10:21:53;8.97;;;2.33;;
6438;SDS011;3252;52.540;13.290;2023-02-28T10:24:02;3.73;;;2.10;;
6438;SDS011;3252;52.540;13.290;2023-02-28T10:26:14;5.23;;;1.83;;
6438;SDS011;3252;52.540;13.290;2023-02-28T10:28:18;5.57;;;2.17;;
6438;SDS011;3252;52.540;13.290;2023-02-28T10:30:21;5.13;;;2.10;;
6438;SDS011;3252;52.540;13.290;2023-02-28T10:32:24;3.13;;;1.73;;
6438;SDS011;3252;52.540;13.290;2023-02-28T10:34:29;5.60;;;1.80;;
6438;SDS011;3252;52.540;13.290;2023-02-28T10:36:31;4.77;;;2.00;;
6438;SDS011;3252;52.540;13.290;2023-02-28T10:38:46;8.93;;;2.40;;
6438;SDS011;3252;52.540;13.290;2023-02-28T10:41:02;6.43;;;2.13;;
6438;SDS011;3252;52.540;13.290;2023-02-28T10:43:18;11.30;;;1.93;;
6438;SDS011;3252;52.540;13.290;2023-02-28T10:45:22;6.27;;;2.27;;
6438;SDS011;3252;52.540;13.290;2023-02-28T10:47:25;7.37;;;2.27;;
6438;SDS011;3252;52.540;13.290;2023-02-28T10:49:28;4.47;;;2.20;;
6438;SDS011;3252;52.540;13.290;2023-02-28T10:51:34;3.23;;;1.80;;
6438;SDS011;3252;52.540;13.290;2023-02-28T10:53:40;3.33;;;1.83;;
6438;SDS011;3252;52.540;13.290;2023-02-28T10:55:55;6.93;;;2.10;;
6438;SDS011;3252;52.540;13.290;2023-02-28T10:57:59;7.70;;;1.97;;
6438;SDS011;3252;52.540;13.290;2023-02-28T11:00:12;3.87;;;1.90;;
6438;SDS011;3252;52.540;13.290;2023-02-28T11:02:29;3.20;;;2.00;;
6438;SDS011;3252;52.540;13.290;2023-02-28T11:04:34;6.00;;;2.10;;
6438;SDS011;3252;52.540;13.290;2023-02-28T11:06:39;6.13;;;2.17;;
6438;SDS011;3252;52.540;13.290;2023-02-28T11:08:49;7.30;;;2.00;;
6438;SDS011;3252;52.540;13.290;2023-02-28T11:10:54;4.93;;;2.00;;
6438;SDS011;3252;52.540;13.290;2023-02-28T11:12:57;6.20;;;2.20;;
6438;SDS011;3252;52.540;13.290;2023-02-28T11:15:00;3.83;;;1.90;;
6438;SDS011;3252;52.540;13.290;2023-02-28T11:17:13;3.07;;;1.70;;
6438;SDS011;3252;52.540;13.290;2023-02-28T11:19:22;3.73;;;1.80;;
6438;SDS011;3252;52.540;13.290;2023-02-28T11:21:27;4.33;;;2.07;;
6438;SDS011;3252;52.540;13.290;2023-02-28T11:23:34;2.40;;;1.60;;
6438;SDS011;3252;52.540;13.290;2023-02-28T11:25:45;3.17;;;1.90;;
6438;SDS011;3252;52.540;13.290;2023-02-28T11:27:50;5.10;;;1.85;;
6438;SDS011;3252;52.540;13.290;2023-02-28T11:29:53;3.85;;;2.17;;
6438;SDS011;3252;52.540;13.290;2023-02-28T11:32:03;3.33;;;2.10;;
6438;SDS011;3252;52.540;13.290;2023-02-28T11:34:22;2.50;;;1.77;;
6438;SDS011;3252;52.540;13.290;2023-02-28T11:36:28;4.68;;;1.92;;
6438;SDS011;3252;52.540;13.290;2023-02-28T11:38:32;3.10;;;1.98;;
6438;SDS011;3252;52.540;13.290;2023-02-28T11:40:39;4.72;;;2.15;;
6438;SDS011;3252;52.540;13.290;2023-02-28T11:42:50;5.13;;;1.80;;
6438;SDS011;3252;52.540;13.290;2023-02-28T11:45:02;5.75;;;2.28;;
6438;SDS011;3252;52.540;13.290;2023-02-28T11:47:17;6.32;;;2.30;;
6438;SDS011;3252;52.540;13.290;2023-02-28T11:49:30;2.22;;;1.75;;
6438;SDS011;3252;52.540;13.290;2023-02-28T11:51:40;4.18;;;2.20;;
6438;SDS011;3252;52.540;13.290;2023-02-28T11:54:04;4.97;;;2.20;;
6438;SDS011;3252;52.540;13.290;2023-02-28T11:56:23;7.90;;;2.20;;
6438;SDS011;3252;52.540;13.290;2023-02-28T11:58:33;4.57;;;2.38;;
6438;SDS011;3252;52.540;13.290;2023-02-28T12:00:50;6.10;;;2.47;;
6438;SDS011;3252;52.540;13.290;2023-02-28T12:03:06;5.50;;;2.47;;
6438;SDS011;3252;52.540;13.290;2023-02-28T12:05:22;2.67;;;2.20;;
6438;SDS011;3252;52.540;13.290;2023-02-28T12:07:31;3.63;;;2.20;;
6438;SDS011;3252;52.540;13.290;2023-02-28T12:09:46;3.92;;;2.28;;
6438;SDS011;3252;52.540;13.290;2023-02-28T12:11:56;7.60;;;2.38;;
6438;SDS011;3252;52.540;13.290;2023-02-28T12:14:09;3.38;;;2.13;;
6438;SDS011;3252;52.540;13.290;2023-02-28T12:16:34;4.60;;;2.63;;
6438;SDS011;3252;52.540;13.290;2023-02-28T12:18:53;3.03;;;2.20;;
6438;SDS011;3252;52.540;13.290;2023-02-28T12:21:08;3.90;;;1.98;;
6438;SDS011;3252;52.540;13.290;2023-02-28T12:25:51;5.43;;;2.30;;
6438;SDS011;3252;52.540;13.290;2023-02-28T12:28:02;8.57;;;3.00;;
6438;SDS011;3252;52.540;13.290;2023-02-28T12:30:08;4.88;;;2.42;;
6438;SDS011;3252;52.540;13.290;2023-02-28T12:32:20;7.78;;;2.75;;
6438;SDS011;3252;52.540;13.290;2023-02-28T12:34:31;7.22;;;2.50;;
6438;SDS011;3252;52.540;13.290;2023-02-28T12:36:37;7.43;;;2.92;;
6438;SDS011;3252;52.540;13.290;2023-02-28T12:38:42;5.75;;;2.58;;
6438;SDS011;3252;52.540;13.290;2023-02-28T12:40:48;4.15;;;2.45;;
6438;SDS011;3252;52.540;13.290;2023-02-28T12:42:56;4.47;;;2.60;;
6438;SDS011;3252;52.540;13.290;2023-02-28T12:45:02;3.92;;;2.53;;
6438;SDS011;3252;52.540;13.290;2023-02-28T12:47:10;6.57;;;2.65;;
6438;SDS011;3252;52.540;13.290;2023-02-28T12:49:16;3.33;;;2.30;;
6438;SDS011;3252;52.540;13.290;2023-02-28T12:51:22;4.22;;;2.72;;
6438;SDS011;3252;52.540;13.290;2023-02-28T12:53:26;4.82;;;2.92;;
6438;SDS011;3252;52.540;13.290;2023-02-28T12:55:33;6.43;;;3.00;;
6438;SDS011;3252;52.540;13.290;2023-02-28T12:57:44;5.30;;;2.70;;
6438;SDS011;3252;52.540;13.290;2023-02-28T12:59:53;4.00;;;2.60;;
6438;SDS011;3252;52.540;13.290;2023-02-28T13:04:46;5.70;;;2.78;;
6438;SDS011;3252;52.540;13.290;2023-02-28T13:07:17;3.65;;;2.70;;
6438;SDS011;3252;52.540;13.290;2023-02-28T13:09:37;4.90;;;2.50;;
6438;SDS011;3252;52.540;13.290;2023-02-28T13:11:41;5.55;;;3.35;;
6438;SDS011;3252;52.540;13.290;2023-02-28T13:13:45;5.07;;;3.30;;
6438;SDS011;3252;52.540;13.290;2023-02-28T13:15:57;6.25;;;3.10;;
6438;SDS011;3252;52.540;13.290;2023-02-28T13:18:01;8.07;;;3.30;;
6438;SDS011;3252;52.540;13.290;2023-02-28T13:20:04;7.50;;;3.10;;
6438;SDS011;3252;52.540;13.290;2023-02-28T13:22:18;5.40;;;2.80;;
6438;SDS011;3252;52.540;13.290;2023-02-28T13:24:39;4.30;;;3.00;;
6438;SDS011;3252;52.540;13.290;2023-02-28T13:29:32;5.70;;;2.87;;
6438;SDS011;3252;52.540;13.290;2023-02-28T13:34:15;5.50;;;3.03;;
6438;SDS011;3252;52.540;13.290;2023-02-28T13:36:26;4.73;;;2.73;;
6438;SDS011;3252;52.540;13.290;2023-02-28T13:38:35;7.03;;;2.90;;
6438;SDS011;3252;52.540;13.290;2023-02-28T13:40:40;7.70;;;3.40;;
6438;SDS011;3252;52.540;13.290;2023-02-28T13:42:46;4.20;;;3.07;;
6438;SDS011;3252;52.540;13.290;2023-02-28T13:47:28;3.57;;;2.90;;
6438;SDS011;3252;52.540;13.290;2023-02-28T13:49:32;5.53;;;3.40;;
6438;SDS011;3252;52.540;13.290;2023-02-28T13:51:37;6.13;;;3.00;;
6438;SDS011;3252;52.540;13.290;2023-02-28T13:53:51;9.83;;;3.00;;
6438;SDS011;3252;52.540;13.290;2023-02-28T13:56:03;6.67;;;3.10;;
6438;SDS011;3252;52.540;13.290;2023-02-28T13:58:18;5.47;;;2.83;;
6438;SDS011;3252;52.540;13.290;2023-02-28T14:00:52;5.33;;;3.03;;
6438;SDS011;3252;52.540;13.290;2023-02-28T14:03:11;5.33;;;2.63;;
6438;SDS011;3252;52.540;13.290;2023-02-28T14:05:36;6.23;;;3.23;;
6438;SDS011;3252;52.540;13.290;2023-02-28T14:07:41;5.07;;;2.97;;
6438;SDS011;3252;52.540;13.290;2023-02-28T14:09:51;5.70;;;2.93;;
6438;SDS011;3252;52.540;13.290;2023-02-28T14:12:10;9.03;;;3.13;;
6438;SDS011;3252;52.540;13.290;2023-02-28T14:14:54;5.87;;;2.80;;
6438;SDS011;3252;52.540;13.290;2023-02-28T14:16:57;5.93;;;2.97;;
6438;SDS011;3252;52.540;13.290;2023-02-28T14:19:00;4.50;;;2.67;;
6438;SDS011;3252;52.540;13.290;2023-02-28T14:21:16;4.60;;;3.00;;
6438;SDS011;3252;52.540;13.290;2023-02-28T14:26:05;5.87;;;2.90;;
6438;SDS011;3252;52.540;13.290;2023-02-28T14:28:18;4.10;;;2.50;;
6438;SDS011;3252;52.540;13.290;2023-02-28T14:30:42;7.07;;;3.13;;
6438;SDS011;3252;52.540;13.290;2023-02-28T14:32:59;5.80;;;3.00;;
6438;SDS011;3252;52.540;13.290;2023-02-28T14:35:13;8.30;;;3.13;;
6438;SDS011;3252;52.540;13.290;2023-02-28T14:37:25;4.27;;;2.80;;
6438;SDS011;3252;52.540;13.290;2023-02-28T14:39:30;8.70;;;2.70;;
6438;SDS011;3252;52.540;13.290;2023-02-28T14:41:41;5.90;;;3.00;;
6438;SDS011;3252;52.540;13.290;2023-02-28T14:43:48;6.03;;;3.20;;
6438;SDS011;3252;52.540;13.290;2023-02-28T14:45:57;5.00;;;2.70;;
6438;SDS011;3252;52.540;13.290;2023-02-28T14:48:04;5.67;;;3.07;;
6438;SDS011;3252;52.540;13.290;2023-02-28T14:50:17;5.10;;;2.70;;
6438;SDS011;3252;52.540;13.290;2023-02-28T14:52:21;4.60;;;2.80;;
6438;SDS011;3252;52.540;13.290;2023-02-28T14:54:25;6.77;;;3.10;;
6438;SDS011;3252;52.540;13.290;2023-02-28T14:56:28;4.33;;;3.00;;
6438;SDS011;3252;52.540;13.290;2023-02-28T14:58:36;5.20;;;2.57;;
6438;SDS011;3252;52.540;13.290;2023-02-28T15:00:46;3.83;;;2.77;;
6438;SDS011;3252;52.540;13.290;2023-02-28T15:02:49;5.00;;;2.67;;
6438;SDS011;3252;52.540;13.290;2023-02-28T15:04:52;6.80;;;2.97;;
6438;SDS011;3252;52.540;13.290;2023-02-28T15:07:08;5.43;;;2.80;;
6438;SDS011;3252;52.540;13.290;2023-02-28T15:09:14;6.87;;;2.63;;
6438;SDS011;3252;52.540;13.290;2023-02-28T15:11:19;4.70;;;2.73;;
6438;SDS011;3252;52.540;13.290;2023-02-28T15:13:22;3.53;;;2.63;;
6438;SDS011;3252;52.540;13.290;2023-02-28T15:15:41;4.27;;;2.37;;
6438;SDS011;3252;52.540;13.290;2023-02-28T15:17:49;7.93;;;3.07;;
6438;SDS011;3252;52.540;13.290;2023-02-28T15:19:54;7.40;;;2.67;;
6438;SDS011;3252;52.540;13.290;2023-02-28T15:21:58;6.83;;;2.93;;
6438;SDS011;3252;52.540;13.290;2023-02-28T15:24:05;5.10;;;2.70;;
6438;SDS011;3252;52.540;13.290;2023-02-28T15:26:12;3.53;;;2.50;;
6438;SDS011;3252;52.540;13.290;2023-02-28T15:28:20;5.07;;;2.77;;
6438;SDS011;3252;52.540;13.290;2023-02-28T15:30:25;6.73;;;2.93;;
6438;SDS011;3252;52.540;13.290;2023-02-28T15:32:31;5.23;;;2.70;;
6438;SDS011;3252;52.540;13.290;2023-02-28T15:34:35;5.33;;;2.80;;
6438;SDS011;3252;52.540;13.290;2023-02-28T15:36:39;6.87;;;3.00;;
6438;SDS011;3252;52.540;13.290;2023-02-28T15:38:41;4.40;;;2.37;;
6438;SDS011;3252;52.540;13.290;2023-02-28T15:40:45;4.90;;;2.50;;
6438;SDS011;3252;52.540;13.290;2023-02-28T15:43:04;6.43;;;3.00;;
6438;SDS011;3252;52.540;13.290;2023-02-28T15:47:34;4.27;;;2.70;;
6438;SDS011;3252;52.540;13.290;2023-02-28T15:49:39;7.43;;;2.97;;
6438;SDS011;3252;52.540;13.290;2023-02-28T15:51:47;4.57;;;2.70;;
6438;SDS011;3252;52.540;13.290;2023-02-28T15:53:54;6.53;;;2.87;;
6438;SDS011;3252;52.540;13.290;2023-02-28T15:56:01;6.47;;;2.50;;
6438;SDS011;3252;52.540;13.290;2023-02-28T15:58:04;5.60;;;2.90;;
6438;SDS011;3252;52.540;13.290;2023-02-28T16:00:09;4.23;;;2.70;;
6438;SDS011;3252;52.540;13.290;2023-02-28T16:02:16;5.27;;;3.13;;
6438;SDS011;3252;52.540;13.290;2023-02-28T16:04:21;6.33;;;2.87;;
6438;SDS011;3252;52.540;13.290;2023-02-28T16:06:33;4.70;;;2.57;;
6438;SDS011;3252;52.540;13.290;2023-02-28T16:08:42;5.30;;;2.83;;
6438;SDS011;3252;52.540;13.290;2023-02-28T16:10:51;4.67;;;2.80;;
6438;SDS011;3252;52.540;13.290;2023-02-28T16:12:56;8.70;;;2.97;;
6438;SDS011;3252;52.540;13.290;2023-02-28T16:15:00;6.93;;;2.90;;
6438;SDS011;3252;52.540;13.290;2023-02-28T16:17:05;6.50;;;3.23;;
6438;SDS011;3252;52.540;13.290;2023-02-28T16:19:15;4.43;;;2.97;;
6438;SDS011;3252;52.540;13.290;2023-02-28T16:21:19;4.80;;;2.73;;
6438;SDS011;3252;52.540;13.290;2023-02-28T16:23:22;6.80;;;3.00;;
6438;SDS011;3252;52.540;13.290;2023-02-28T16:25:26;6.83;;;3.00;;
6438;SDS011;3252;52.540;13.290;2023-02-28T16:27:36;5.93;;;3.20;;
6438;SDS011;3252;52.540;13.290;2023-02-28T16:29:39;8.77;;;4.63;;
6438;SDS011;3252;52.540;13.290;2023-02-28T16:31:43;5.27;;;3.50;;
6438;SDS011;3252;52.540;13.290;2023-02-28T16:33:45;8.13;;;3.70;;
6438;SDS011;3252;52.540;13.290;2023-02-28T16:35:47;6.87;;;3.60;;
6438;SDS011;3252;52.540;13.290;2023-02-28T16:37:51;7.50;;;3.67;;
6438;SDS011;3252;52.540;13.290;2023-02-28T16:39:54;5.27;;;3.27;;
6438;SDS011;3252;52.540;13.290;2023-02-28T16:41:56;6.80;;;3.80;;
6438;SDS011;3252;52.540;13.290;2023-02-28T16:44:01;9.13;;;3.63;;
6438;SDS011;3252;52.540;13.290;2023-02-28T16:46:04;9.00;;;4.70;;
6438;SDS011;3252;52.540;13.290;2023-02-28T16:48:07;10.13;;;3.47;;
6438;SDS011;3252;52.540;13.290;2023-02-28T16:50:14;10.00;;;3.43;;
6438;SDS011;3252;52.540;13.290;2023-02-28T16:52:18;7.40;;;3.50;;
6438;SDS011;3252;52.540;13.290;2023-02-28T16:54:21;7.23;;;3.53;;
6438;SDS011;3252;52.540;13.290;2023-02-28T16:56:24;7.93;;;3.60;;
6438;SDS011;3252;52.540;13.290;2023-02-28T16:58:27;10.53;;;3.07;;
6438;SDS011;3252;52.540;13.290;2023-02-28T17:00:30;8.50;;;4.23;;
6438;SDS011;3252;52.540;13.290;2023-02-28T17:02:33;7.60;;;4.57;;
6438;SDS011;3252;52.540;13.290;2023-02-28T17:04:36;10.43;;;3.50;;
6438;SDS011;3252;52.540;13.290;2023-02-28T17:06:38;5.77;;;3.40;;
6438;SDS011;3252;52.540;13.290;2023-02-28T17:08:41;8.80;;;3.53;;
6438;SDS011;3252;52.540;13.290;2023-02-28T17:10:45;6.60;;;2.90;;
6438;SDS011;3252;52.540;13.290;2023-02-28T17:12:49;10.77;;;3.77;;
6438;SDS011;3252;52.540;13.290;2023-02-28T17:14:51;6.50;;;3.10;;
6438;SDS011;3252;52.540;13.290;2023-02-28T17:16:54;5.83;;;3.40;;
6438;SDS011;3252;52.540;13.290;2023-02-28T17:18:57;6.27;;;3.50;;
6438;SDS011;3252;52.540;13.290;2023-02-28T17:21:00;6.10;;;3.70;;
6438;SDS011;3252;52.540;13.290;2023-02-28T17:23:03;8.07;;;3.03;;
6438;SDS011;3252;52.540;13.290;2023-02-28T17:25:07;8.53;;;3.30;;
6438;SDS011;3252;52.540;13.290;2023-02-28T17:27:12;10.37;;;3.77;;
6438;SDS011;3252;52.540;13.290;2023-02-28T17:29:15;9.33;;;3.67;;
6438;SDS011;3252;52.540;13.290;2023-02-28T17:31:19;9.13;;;4.10;;
6438;SDS011;3252;52.540;13.290;2023-02-28T17:33:21;13.33;;;4.37;;
6438;SDS011;3252;52.540;13.290;2023-02-28T17:35:24;9.60;;;4.33;;
6438;SDS011;3252;52.540;13.290;2023-02-28T17:37:27;8.00;;;4.73;;
6438;SDS011;3252;52.540;13.290;2023-02-28T17:39:29;11.47;;;6.27;;
6438;SDS011;3252;52.540;13.290;2023-02-28T17:41:32;9.67;;;5.90;;
6438;SDS011;3252;52.540;13.290;2023-02-28T17:43:36;11.50;;;5.00;;
6438;SDS011;3252;52.540;13.290;2023-02-28T17:45:38;8.87;;;4.23;;
6438;SDS011;3252;52.540;13.290;2023-02-28T17:47:41;7.33;;;3.93;;
6438;SDS011;3252;52.540;13.290;2023-02-28T17:49:44;11.17;;;4.93;;
6438;SDS011;3252;52.540;13.290;2023-02-28T17:51:47;8.57;;;4.40;;
6438;SDS011;3252;52.540;13.290;2023-02-28T17:53:51;9.63;;;4.83;;
6438;SDS011;3252;52.540;13.290;2023-02-28T17:55:53;10.40;;;5.03;;
6438;SDS011;3252;52.540;13.290;2023-02-28T17:57:55;8.60;;;5.33;;
6438;SDS011;3252;52.540;13.290;2023-02-28T17:59:59;12.60;;;6.67;;
6438;SDS011;3252;52.540;13.290;2023-02-28T18:02:12;9.40;;;5.33;;
6438;SDS011;3252;52.540;13.290;2023-02-28T18:04:15;12.07;;;5.13;;
6438;SDS011;3252;52.540;13.290;2023-02-28T18:06:19;10.97;;;5.00;;
6438;SDS011;3252;52.540;13.290;2023-02-28T18:08:24;9.67;;;4.30;;
6438;SDS011;3252;52.540;13.290;2023-02-28T18:10:26;10.47;;;4.50;;
6438;SDS011;3252;52.540;13.290;2023-02-28T18:12:29;8.17;;;4.80;;
6438;SDS011;3252;52.540;13.290;2023-02-28T18:14:31;10.63;;;4.53;;
6438;SDS011;3252;52.540;13.290;2023-02-28T18:16:35;9.73;;;4.63;;
6438;SDS011;3252;52.540;13.290;2023-02-28T18:18:38;13.97;;;4.93;;
6438;SDS011;3252;52.540;13.290;2023-02-28T18:20:40;9.13;;;4.33;;
6438;SDS011;3252;52.540;13.290;2023-02-28T18:22:42;9.63;;;4.03;;
6438;SDS011;3252;52.540;13.290;2023-02-28T18:24:45;11.00;;;4.50;;
6438;SDS011;3252;52.540;13.290;2023-02-28T18:26:47;11.00;;;4.47;;
6438;SDS011;3252;52.540;13.290;2023-02-28T18:28:50;9.03;;;3.87;;
6438;SDS011;3252;52.540;13.290;2023-02-28T18:30:52;8.40;;;4.27;;
6438;SDS011;3252;52.540;13.290;2023-02-28T18:32:59;9.10;;;4.20;;
6438;SDS011;3252;52.540;13.290;2023-02-28T18:35:02;7.17;;;4.03;;
6438;SDS011;3252;52.540;13.290;2023-02-28T18:37:05;10.00;;;4.60;;
6438;SDS011;3252;52.540;13.290;2023-02-28T18:39:16;7.20;;;4.27;;
6438;SDS011;3252;52.540;13.290;2023-02-28T18:41:19;12.07;;;4.60;;
6438;SDS011;3252;52.540;13.290;2023-02-28T18:43:24;9.20;;;4.87;;
6438;SDS011;3252;52.540;13.290;2023-02-28T18:45:27;9.63;;;4.63;;
6438;SDS011;3252;52.540;13.290;2023-02-28T18:47:29;10.80;;;4.70;;
6438;SDS011;3252;52.540;13.290;2023-02-28T18:49:33;8.60;;;4.50;;
6438;SDS011;3252;52.540;13.290;2023-02-28T18:51:36;8.03;;;4.27;;
6438;SDS011;3252;52.540;13.290;2023-02-28T18:53:44;8.87;;;4.37;;
6438;SDS011;3252;52.540;13.290;2023-02-28T18:55:46;8.73;;;4.63;;
6438;SDS011;3252;52.540;13.290;2023-02-28T18:57:48;8.23;;;4.70;;
6438;SDS011;3252;52.540;13.290;2023-02-28T18:59:51;7.73;;;4.13;;
6438;SDS011;3252;52.540;13.290;2023-02-28T19:01:53;7.10;;;4.10;;
6438;SDS011;3252;52.540;13.290;2023-02-28T19:03:56;8.03;;;3.87;;
6438;SDS011;3252;52.540;13.290;2023-02-28T19:06:01;6.90;;;4.00;;
6438;SDS011;3252;52.540;13.290;2023-02-28T19:08:03;8.00;;;4.10;;
6438;SDS011;3252;52.540;13.290;2023-02-28T19:10:06;6.03;;;3.60;;
6438;SDS011;3252;52.540;13.290;2023-02-28T19:12:09;8.33;;;3.97;;
6438;SDS011;3252;52.540;13.290;2023-02-28T19:14:11;6.53;;;3.40;;
6438;SDS011;3252;52.540;13.290;2023-02-28T19:16:14;11.27;;;4.00;;
6438;SDS011;3252;52.540;13.290;2023-02-28T19:18:18;7.53;;;3.93;;
6438;SDS011;3252;52.540;13.290;2023-02-28T19:20:23;6.93;;;3.73;;
6438;SDS011;3252;52.540;13.290;2023-02-28T19:22:28;6.43;;;3.90;;
6438;SDS011;3252;52.540;13.290;2023-02-28T19:24:31;9.47;;;4.13;;
6438;SDS011;3252;52.540;13.290;2023-02-28T19:26:33;8.50;;;3.93;;
6438;SDS011;3252;52.540;13.290;2023-02-28T19:28:35;11.23;;;4.20;;
6438;SDS011;3252;52.540;13.290;2023-02-28T19:30:38;8.57;;;4.07;;
6438;SDS011;3252;52.540;13.290;2023-02-28T19:32:41;11.30;;;3.80;;
6438;SDS011;3252;52.540;13.290;2023-02-28T19:34:43;9.37;;;3.83;;
6438;SDS011;3252;52.540;13.290;2023-02-28T19:36:45;5.93;;;3.97;;
6438;SDS011;3252;52.540;13.290;2023-02-28T19:38:49;7.23;;;4.20;;
6438;SDS011;3252;52.540;13.290;2023-02-28T19:40:58;5.80;;;3.33;;
6438;SDS011;3252;52.540;13.290;2023-02-28T19:43:01;8.37;;;3.83;;
6438;SDS011;3252;52.540;13.290;2023-02-28T19:45:04;6.23;;;4.07;;
6438;SDS011;3252;52.540;13.290;2023-02-28T19:47:09;6.67;;;4.07;;
6438;SDS011;3252;52.540;13.290;2023-02-28T19:49:12;6.37;;;4.07;;
6438;SDS011;3252;52.540;13.290;2023-02-28T19:51:14;8.03;;;3.80;;
6438;SDS011;3252;52.540;13.290;2023-02-28T19:53:18;9.30;;;3.80;;
6438;SDS011;3252;52.540;13.290;2023-02-28T19:55:21;8.23;;;4.57;;
6438;SDS011;3252;52.540;13.290;2023-02-28T19:57:23;10.50;;;4.23;;
6438;SDS011;3252;52.540;13.290;2023-02-28T19:59:26;10.97;;;4.73;;